sensor_id;sensor_type;location;lat;lon;timestamp;P1;durP1;ratioP1;P2;durP2;ratioP2
3341;SDS011;1684;50.748;6.154;2023-07-24T00:00:41;5.07;;;3.57;;
3341;SDS011;1684;50.748;6.154;2023-07-24T00:03:11;6.30;;;3.90;;
3341;SDS011;1684;50.748;6.154;2023-07-24T00:05:39;6.60;;;4.67;;
3341;SDS011;1684;50.748;6.154;2023-07-24T00:08:08;7.43;;;5.00;;
3341;SDS011;1684;50.748;6.154;2023-07-24T00:10:36;7.30;;;4.90;;
3341;SDS011;1684;50.748;6.154;2023-07-24T00:13:05;7.47;;;4.87;;
3341;SDS011;1684;50.748;6.154;2023-07-24T00:15:33;10.20;;;4.40;;
3341;SDS011;1684;50.748;6.154;2023-07-24T00:18:01;6.77;;;4.40;;
3341;SDS011;1684;50.748;6.154;2023-07-24T00:20:31;7.10;;;4.30;;
3341;SDS011;1684;50.748;6.154;2023-07-24T00:22:59;8.17;;;4.77;;
3341;SDS011;1684;50.748;6.154;2023-07-24T00:25:28;9.30;;;4.73;;
3341;SDS011;1684;50.748;6.154;2023-07-24T00:27:56;6.80;;;4.33;;
3341;SDS011;1684;50.748;6.154;2023-07-24T00:30:24;7.13;;;4.77;;
3341;SDS011;1684;50.748;6.154;2023-07-24T00:32:53;7.57;;;4.60;;
3341;SDS011;1684;50.748;6.154;2023-07-24T00:35:21;7.17;;;4.20;;
3341;SDS011;1684;50.748;6.154;2023-07-24T00:37:51;8.60;;;5.13;;
3341;SDS011;1684;50.748;6.154;2023-07-24T00:40:19;9.13;;;5.20;;
3341;SDS011;1684;50.748;6.154;2023-07-24T00:42:48;10.87;;;5.50;;
3341;SDS011;1684;50.748;6.154;2023-07-24T00:45:16;7.80;;;4.50;;
3341;SDS011;1684;50.748;6.154;2023-07-24T00:47:45;6.53;;;4.40;;
3341;SDS011;1684;50.748;6.154;2023-07-24T00:50:13;7.43;;;4.50;;
3341;SDS011;1684;50.748;6.154;2023-07-24T00:52:42;9.40;;;4.27;;
3341;SDS011;1684;50.748;6.154;2023-07-24T00:55:12;11.00;;;4.73;;
3341;SDS011;1684;50.748;6.154;2023-07-24T00:57:43;9.13;;;4.80;;
3341;SDS011;1684;50.748;6.154;2023-07-24T01:00:12;5.97;;;3.93;;
3341;SDS011;1684;50.748;6.154;2023-07-24T01:02:40;9.43;;;4.50;;
3341;SDS011;1684;50.748;6.154;2023-07-24T01:05:09;7.27;;;5.00;;
3341;SDS011;1684;50.748;6.154;2023-07-24T01:07:39;8.83;;;4.87;;
3341;SDS011;1684;50.748;6.154;2023-07-24T01:10:07;5.90;;;4.07;;
3341;SDS011;1684;50.748;6.154;2023-07-24T01:12:39;6.13;;;4.13;;
3341;SDS011;1684;50.748;6.154;2023-07-24T01:15:10;6.00;;;4.23;;
3341;SDS011;1684;50.748;6.154;2023-07-24T01:17:44;10.53;;;4.83;;
3341;SDS011;1684;50.748;6.154;2023-07-24T01:20:14;8.10;;;4.77;;
3341;SDS011;1684;50.748;6.154;2023-07-24T01:22:47;7.80;;;4.10;;
3341;SDS011;1684;50.748;6.154;2023-07-24T01:25:18;6.23;;;4.37;;
3341;SDS011;1684;50.748;6.154;2023-07-24T01:27:48;8.33;;;4.47;;
3341;SDS011;1684;50.748;6.154;2023-07-24T01:30:17;6.40;;;4.23;;
3341;SDS011;1684;50.748;6.154;2023-07-24T01:32:46;6.90;;;4.50;;
3341;SDS011;1684;50.748;6.154;2023-07-24T01:35:14;8.33;;;4.00;;
3341;SDS011;1684;50.748;6.154;2023-07-24T01:37:42;7.90;;;4.80;;
3341;SDS011;1684;50.748;6.154;2023-07-24T01:40:11;8.00;;;5.00;;
3341;SDS011;1684;50.748;6.154;2023-07-24T01:42:40;8.87;;;5.37;;
3341;SDS011;1684;50.748;6.154;2023-07-24T01:45:10;10.43;;;4.40;;
3341;SDS011;1684;50.748;6.154;2023-07-24T01:47:38;10.17;;;5.23;;
3341;SDS011;1684;50.748;6.154;2023-07-24T01:50:07;9.13;;;4.30;;
3341;SDS011;1684;50.748;6.154;2023-07-24T01:52:35;8.50;;;5.63;;
3341;SDS011;1684;50.748;6.154;2023-07-24T01:55:04;8.27;;;5.57;;
3341;SDS011;1684;50.748;6.154;2023-07-24T02:01:02;7.13;;;4.70;;
3341;SDS011;1684;50.748;6.154;2023-07-24T02:03:31;9.10;;;4.90;;
3341;SDS011;1684;50.748;6.154;2023-07-24T02:05:59;7.40;;;4.20;;
3341;SDS011;1684;50.748;6.154;2023-07-24T02:08:28;9.43;;;4.47;;
3341;SDS011;1684;50.748;6.154;2023-07-24T02:10:56;10.60;;;6.00;;
3341;SDS011;1684;50.748;6.154;2023-07-24T02:13:24;9.90;;;5.43;;
3341;SDS011;1684;50.748;6.154;2023-07-24T02:15:52;8.40;;;4.17;;
3341;SDS011;1684;50.748;6.154;2023-07-24T02:18:22;8.47;;;4.30;;
3341;SDS011;1684;50.748;6.154;2023-07-24T02:20:50;10.20;;;5.20;;
3341;SDS011;1684;50.748;6.154;2023-07-24T02:23:19;8.60;;;6.13;;
3341;SDS011;1684;50.748;6.154;2023-07-24T02:25:50;7.33;;;4.37;;
3341;SDS011;1684;50.748;6.154;2023-07-24T02:28:19;8.70;;;4.80;;
3341;SDS011;1684;50.748;6.154;2023-07-24T02:30:47;8.67;;;5.50;;
3341;SDS011;1684;50.748;6.154;2023-07-24T02:33:17;10.10;;;4.30;;
3341;SDS011;1684;50.748;6.154;2023-07-24T02:35:47;10.77;;;5.83;;
3341;SDS011;1684;50.748;6.154;2023-07-24T02:38:15;8.40;;;4.83;;
3341;SDS011;1684;50.748;6.154;2023-07-24T02:40:44;7.13;;;4.90;;
3341;SDS011;1684;50.748;6.154;2023-07-24T02:43:12;13.10;;;5.47;;
3341;SDS011;1684;50.748;6.154;2023-07-24T02:45:41;9.30;;;5.70;;
3341;SDS011;1684;50.748;6.154;2023-07-24T02:48:09;8.93;;;5.73;;
3341;SDS011;1684;50.748;6.154;2023-07-24T02:50:38;9.63;;;5.63;;
3341;SDS011;1684;50.748;6.154;2023-07-24T02:53:07;8.73;;;4.80;;
3341;SDS011;1684;50.748;6.154;2023-07-24T02:55:37;7.87;;;4.90;;
3341;SDS011;1684;50.748;6.154;2023-07-24T02:58:10;7.60;;;4.47;;
3341;SDS011;1684;50.748;6.154;2023-07-24T03:00:38;7.30;;;4.90;;
3341;SDS011;1684;50.748;6.154;2023-07-24T03:03:07;8.23;;;3.97;;
3341;SDS011;1684;50.748;6.154;2023-07-24T03:05:35;9.20;;;5.73;;
3341;SDS011;1684;50.748;6.154;2023-07-24T03:08:03;8.27;;;5.07;;
3341;SDS011;1684;50.748;6.154;2023-07-24T03:10:33;9.97;;;6.20;;
3341;SDS011;1684;50.748;6.154;2023-07-24T03:13:02;9.90;;;5.00;;
3341;SDS011;1684;50.748;6.154;2023-07-24T03:15:30;7.63;;;4.60;;
3341;SDS011;1684;50.748;6.154;2023-07-24T03:17:59;8.43;;;4.90;;
3341;SDS011;1684;50.748;6.154;2023-07-24T03:20:27;9.63;;;5.40;;
3341;SDS011;1684;50.748;6.154;2023-07-24T03:22:56;9.10;;;5.23;;
3341;SDS011;1684;50.748;6.154;2023-07-24T03:25:23;7.87;;;4.80;;
3341;SDS011;1684;50.748;6.154;2023-07-24T03:27:53;8.23;;;5.10;;
3341;SDS011;1684;50.748;6.154;2023-07-24T03:30:21;7.93;;;4.93;;
3341;SDS011;1684;50.748;6.154;2023-07-24T03:32:50;8.70;;;5.27;;
3341;SDS011;1684;50.748;6.154;2023-07-24T03:35:18;7.87;;;5.50;;
3341;SDS011;1684;50.748;6.154;2023-07-24T03:37:47;14.47;;;6.40;;
3341;SDS011;1684;50.748;6.154;2023-07-24T03:40:15;9.03;;;6.00;;
3341;SDS011;1684;50.748;6.154;2023-07-24T03:42:43;9.27;;;5.47;;
3341;SDS011;1684;50.748;6.154;2023-07-24T03:45:13;10.03;;;6.00;;
3341;SDS011;1684;50.748;6.154;2023-07-24T03:47:42;8.77;;;5.70;;
3341;SDS011;1684;50.748;6.154;2023-07-24T03:50:10;10.30;;;5.20;;
3341;SDS011;1684;50.748;6.154;2023-07-24T03:52:39;9.57;;;4.77;;
3341;SDS011;1684;50.748;6.154;2023-07-24T03:55:07;7.13;;;5.07;;
3341;SDS011;1684;50.748;6.154;2023-07-24T03:57:36;7.00;;;4.57;;
3341;SDS011;1684;50.748;6.154;2023-07-24T04:00:05;10.47;;;4.57;;
3341;SDS011;1684;50.748;6.154;2023-07-24T04:02:35;11.13;;;5.87;;
3341;SDS011;1684;50.748;6.154;2023-07-24T04:05:04;8.40;;;4.90;;
3341;SDS011;1684;50.748;6.154;2023-07-24T04:07:36;8.53;;;5.23;;
3341;SDS011;1684;50.748;6.154;2023-07-24T04:10:05;9.50;;;5.43;;
3341;SDS011;1684;50.748;6.154;2023-07-24T04:12:33;10.40;;;6.20;;
3341;SDS011;1684;50.748;6.154;2023-07-24T04:15:02;9.20;;;5.70;;
3341;SDS011;1684;50.748;6.154;2023-07-24T04:17:30;10.53;;;5.50;;
3341;SDS011;1684;50.748;6.154;2023-07-24T04:20:00;7.63;;;5.00;;
3341;SDS011;1684;50.748;6.154;2023-07-24T04:22:29;8.10;;;5.20;;
3341;SDS011;1684;50.748;6.154;2023-07-24T04:24:58;10.67;;;5.97;;
3341;SDS011;1684;50.748;6.154;2023-07-24T04:27:26;10.17;;;6.23;;
3341;SDS011;1684;50.748;6.154;2023-07-24T04:29:54;9.07;;;5.80;;
3341;SDS011;1684;50.748;6.154;2023-07-24T04:32:23;9.50;;;5.60;;
3341;SDS011;1684;50.748;6.154;2023-07-24T04:34:51;7.87;;;4.40;;
3341;SDS011;1684;50.748;6.154;2023-07-24T04:37:21;7.70;;;5.43;;
3341;SDS011;1684;50.748;6.154;2023-07-24T04:39:50;11.30;;;5.73;;
3341;SDS011;1684;50.748;6.154;2023-07-24T04:42:18;8.87;;;5.20;;
3341;SDS011;1684;50.748;6.154;2023-07-24T04:44:46;10.70;;;5.97;;
3341;SDS011;1684;50.748;6.154;2023-07-24T04:47:16;9.50;;;5.57;;
3341;SDS011;1684;50.748;6.154;2023-07-24T04:49:44;8.90;;;4.80;;
3341;SDS011;1684;50.748;6.154;2023-07-24T04:52:13;9.67;;;5.40;;
3341;SDS011;1684;50.748;6.154;2023-07-24T04:54:42;8.73;;;4.53;;
3341;SDS011;1684;50.748;6.154;2023-07-24T04:57:11;9.07;;;5.10;;
3341;SDS011;1684;50.748;6.154;2023-07-24T04:59:39;11.87;;;5.63;;
3341;SDS011;1684;50.748;6.154;2023-07-24T05:02:09;10.43;;;5.00;;
3341;SDS011;1684;50.748;6.154;2023-07-24T05:04:38;11.37;;;6.47;;
3341;SDS011;1684;50.748;6.154;2023-07-24T05:07:07;8.73;;;5.20;;
3341;SDS011;1684;50.748;6.154;2023-07-24T05:09:36;8.90;;;5.57;;
3341;SDS011;1684;50.748;6.154;2023-07-24T05:12:06;8.53;;;4.20;;
3341;SDS011;1684;50.748;6.154;2023-07-24T05:14:35;10.20;;;5.10;;
3341;SDS011;1684;50.748;6.154;2023-07-24T05:17:03;9.40;;;5.80;;
3341;SDS011;1684;50.748;6.154;2023-07-24T05:19:32;8.97;;;5.30;;
3341;SDS011;1684;50.748;6.154;2023-07-24T05:22:00;8.80;;;4.50;;
3341;SDS011;1684;50.748;6.154;2023-07-24T05:24:28;8.10;;;4.30;;
3341;SDS011;1684;50.748;6.154;2023-07-24T05:26:57;10.20;;;4.40;;
3341;SDS011;1684;50.748;6.154;2023-07-24T05:29:26;9.40;;;4.70;;
3341;SDS011;1684;50.748;6.154;2023-07-24T05:31:55;5.97;;;4.00;;
3341;SDS011;1684;50.748;6.154;2023-07-24T05:34:25;8.53;;;4.67;;
3341;SDS011;1684;50.748;6.154;2023-07-24T05:36:53;6.60;;;4.37;;
3341;SDS011;1684;50.748;6.154;2023-07-24T05:39:21;8.30;;;4.90;;
3341;SDS011;1684;50.748;6.154;2023-07-24T05:41:50;7.30;;;3.97;;
3341;SDS011;1684;50.748;6.154;2023-07-24T05:44:18;6.13;;;3.87;;
3341;SDS011;1684;50.748;6.154;2023-07-24T05:46:48;10.17;;;4.30;;
3341;SDS011;1684;50.748;6.154;2023-07-24T05:49:16;6.73;;;4.00;;
3341;SDS011;1684;50.748;6.154;2023-07-24T05:51:44;6.20;;;3.90;;
3341;SDS011;1684;50.748;6.154;2023-07-24T05:54:13;12.30;;;4.33;;
3341;SDS011;1684;50.748;6.154;2023-07-24T05:56:41;6.80;;;4.10;;
3341;SDS011;1684;50.748;6.154;2023-07-24T05:59:09;8.53;;;3.93;;
3341;SDS011;1684;50.748;6.154;2023-07-24T06:01:37;11.53;;;5.03;;
3341;SDS011;1684;50.748;6.154;2023-07-24T06:04:07;7.60;;;4.23;;
3341;SDS011;1684;50.748;6.154;2023-07-24T06:06:35;5.20;;;3.90;;
3341;SDS011;1684;50.748;6.154;2023-07-24T06:09:04;5.97;;;3.50;;
3341;SDS011;1684;50.748;6.154;2023-07-24T06:11:32;7.83;;;3.30;;
3341;SDS011;1684;50.748;6.154;2023-07-24T06:14:00;8.13;;;4.13;;
3341;SDS011;1684;50.748;6.154;2023-07-24T06:16:28;8.03;;;5.10;;
3341;SDS011;1684;50.748;6.154;2023-07-24T06:18:57;9.37;;;4.20;;
3341;SDS011;1684;50.748;6.154;2023-07-24T06:21:27;7.33;;;4.03;;
3341;SDS011;1684;50.748;6.154;2023-07-24T06:23:56;8.60;;;4.57;;
3341;SDS011;1684;50.748;6.154;2023-07-24T06:26:27;8.10;;;4.33;;
3341;SDS011;1684;50.748;6.154;2023-07-24T06:28:56;9.67;;;4.87;;
3341;SDS011;1684;50.748;6.154;2023-07-24T06:31:24;6.80;;;4.40;;
3341;SDS011;1684;50.748;6.154;2023-07-24T06:33:53;11.03;;;4.80;;
3341;SDS011;1684;50.748;6.154;2023-07-24T06:36:21;10.30;;;4.50;;
3341;SDS011;1684;50.748;6.154;2023-07-24T06:38:51;9.20;;;7.10;;
3341;SDS011;1684;50.748;6.154;2023-07-24T06:41:20;8.00;;;4.43;;
3341;SDS011;1684;50.748;6.154;2023-07-24T06:43:49;7.53;;;3.87;;
3341;SDS011;1684;50.748;6.154;2023-07-24T06:46:17;9.13;;;5.50;;
3341;SDS011;1684;50.748;6.154;2023-07-24T06:48:45;9.87;;;4.60;;
3341;SDS011;1684;50.748;6.154;2023-07-24T06:51:14;8.27;;;4.47;;
3341;SDS011;1684;50.748;6.154;2023-07-24T06:53:42;8.40;;;4.60;;
3341;SDS011;1684;50.748;6.154;2023-07-24T06:56:12;8.43;;;5.50;;
3341;SDS011;1684;50.748;6.154;2023-07-24T06:58:41;11.60;;;5.83;;
3341;SDS011;1684;50.748;6.154;2023-07-24T07:01:09;8.20;;;4.70;;
3341;SDS011;1684;50.748;6.154;2023-07-24T07:03:37;9.20;;;4.70;;
3341;SDS011;1684;50.748;6.154;2023-07-24T07:06:06;9.50;;;4.60;;
3341;SDS011;1684;50.748;6.154;2023-07-24T07:08:52;11.13;;;5.93;;
3341;SDS011;1684;50.748;6.154;2023-07-24T07:11:22;10.20;;;4.90;;
3341;SDS011;1684;50.748;6.154;2023-07-24T07:13:51;9.93;;;4.80;;
3341;SDS011;1684;50.748;6.154;2023-07-24T07:16:19;9.40;;;4.43;;
3341;SDS011;1684;50.748;6.154;2023-07-24T07:18:47;9.23;;;4.10;;
3341;SDS011;1684;50.748;6.154;2023-07-24T07:21:16;6.93;;;4.50;;
3341;SDS011;1684;50.748;6.154;2023-07-24T07:23:44;6.30;;;4.00;;
3341;SDS011;1684;50.748;6.154;2023-07-24T07:26:13;10.87;;;5.07;;
3341;SDS011;1684;50.748;6.154;2023-07-24T07:28:42;11.93;;;4.17;;
3341;SDS011;1684;50.748;6.154;2023-07-24T07:31:12;9.50;;;5.10;;
3341;SDS011;1684;50.748;6.154;2023-07-24T07:33:40;9.70;;;4.93;;
3341;SDS011;1684;50.748;6.154;2023-07-24T07:36:08;6.63;;;4.20;;
3341;SDS011;1684;50.748;6.154;2023-07-24T07:38:40;11.00;;;4.73;;
3341;SDS011;1684;50.748;6.154;2023-07-24T07:41:08;9.50;;;4.97;;
3341;SDS011;1684;50.748;6.154;2023-07-24T07:43:36;12.00;;;5.50;;
3341;SDS011;1684;50.748;6.154;2023-07-24T07:46:06;9.60;;;5.10;;
3341;SDS011;1684;50.748;6.154;2023-07-24T07:48:35;6.87;;;4.50;;
3341;SDS011;1684;50.748;6.154;2023-07-24T07:51:03;10.03;;;4.40;;
3341;SDS011;1684;50.748;6.154;2023-07-24T07:53:32;7.17;;;4.10;;
3341;SDS011;1684;50.748;6.154;2023-07-24T07:56:00;7.00;;;4.33;;
3341;SDS011;1684;50.748;6.154;2023-07-24T07:58:29;8.63;;;4.30;;
3341;SDS011;1684;50.748;6.154;2023-07-24T08:00:57;6.37;;;4.10;;
3341;SDS011;1684;50.748;6.154;2023-07-24T08:03:27;7.90;;;3.30;;
3341;SDS011;1684;50.748;6.154;2023-07-24T08:05:56;6.67;;;3.60;;
3341;SDS011;1684;50.748;6.154;2023-07-24T08:08:25;8.87;;;4.13;;
3341;SDS011;1684;50.748;6.154;2023-07-24T08:10:53;6.50;;;3.80;;
3341;SDS011;1684;50.748;6.154;2023-07-24T08:13:22;5.80;;;3.67;;
3341;SDS011;1684;50.748;6.154;2023-07-24T08:15:50;6.73;;;3.63;;
3341;SDS011;1684;50.748;6.154;2023-07-24T08:18:18;5.80;;;3.23;;
3341;SDS011;1684;50.748;6.154;2023-07-24T08:20:51;6.50;;;3.17;;
3341;SDS011;1684;50.748;6.154;2023-07-24T08:23:19;7.60;;;3.90;;
3341;SDS011;1684;50.748;6.154;2023-07-24T08:25:51;9.23;;;3.73;;
3341;SDS011;1684;50.748;6.154;2023-07-24T08:28:20;6.53;;;3.50;;
3341;SDS011;1684;50.748;6.154;2023-07-24T08:30:55;6.47;;;3.57;;
3341;SDS011;1684;50.748;6.154;2023-07-24T08:33:24;5.90;;;3.00;;
3341;SDS011;1684;50.748;6.154;2023-07-24T08:36:01;8.23;;;4.07;;
3341;SDS011;1684;50.748;6.154;2023-07-24T08:38:29;7.77;;;3.33;;
3341;SDS011;1684;50.748;6.154;2023-07-24T08:41:04;7.50;;;3.40;;
3341;SDS011;1684;50.748;6.154;2023-07-24T08:43:33;6.90;;;3.43;;
3341;SDS011;1684;50.748;6.154;2023-07-24T08:46:02;8.23;;;3.50;;
3341;SDS011;1684;50.748;6.154;2023-07-24T08:48:31;7.83;;;3.27;;
3341;SDS011;1684;50.748;6.154;2023-07-24T08:51:04;6.93;;;3.83;;
3341;SDS011;1684;50.748;6.154;2023-07-24T08:53:33;6.40;;;4.00;;
3341;SDS011;1684;50.748;6.154;2023-07-24T08:56:02;6.77;;;4.00;;
3341;SDS011;1684;50.748;6.154;2023-07-24T08:58:31;6.83;;;3.53;;
3341;SDS011;1684;50.748;6.154;2023-07-24T09:01:00;5.23;;;3.23;;
3341;SDS011;1684;50.748;6.154;2023-07-24T09:03:30;6.13;;;3.87;;
3341;SDS011;1684;50.748;6.154;2023-07-24T09:05:59;6.20;;;2.90;;
3341;SDS011;1684;50.748;6.154;2023-07-24T09:08:30;5.77;;;3.00;;
3341;SDS011;1684;50.748;6.154;2023-07-24T09:10:59;4.53;;;2.83;;
3341;SDS011;1684;50.748;6.154;2023-07-24T09:13:27;6.10;;;3.10;;
3341;SDS011;1684;50.748;6.154;2023-07-24T09:15:56;5.93;;;3.00;;
3341;SDS011;1684;50.748;6.154;2023-07-24T09:18:25;5.40;;;3.07;;
3341;SDS011;1684;50.748;6.154;2023-07-24T09:20:54;5.37;;;3.33;;
3341;SDS011;1684;50.748;6.154;2023-07-24T09:23:26;9.03;;;3.67;;
3341;SDS011;1684;50.748;6.154;2023-07-24T09:25:56;6.47;;;3.23;;
3341;SDS011;1684;50.748;6.154;2023-07-24T09:28:25;5.30;;;3.43;;
3341;SDS011;1684;50.748;6.154;2023-07-24T09:30:54;8.03;;;3.70;;
3341;SDS011;1684;50.748;6.154;2023-07-24T09:33:22;7.53;;;3.73;;
3341;SDS011;1684;50.748;6.154;2023-07-24T09:35:59;6.17;;;3.90;;
3341;SDS011;1684;50.748;6.154;2023-07-24T09:38:27;7.00;;;3.30;;
3341;SDS011;1684;50.748;6.154;2023-07-24T09:40:57;6.33;;;3.03;;
3341;SDS011;1684;50.748;6.154;2023-07-24T09:43:25;6.77;;;3.20;;
3341;SDS011;1684;50.748;6.154;2023-07-24T09:45:57;6.40;;;3.47;;
3341;SDS011;1684;50.748;6.154;2023-07-24T09:48:26;6.80;;;4.30;;
3341;SDS011;1684;50.748;6.154;2023-07-24T09:50:59;6.23;;;4.10;;
3341;SDS011;1684;50.748;6.154;2023-07-24T09:53:31;6.20;;;3.80;;
3341;SDS011;1684;50.748;6.154;2023-07-24T09:56:02;7.33;;;3.37;;
3341;SDS011;1684;50.748;6.154;2023-07-24T09:58:32;5.90;;;3.90;;
3341;SDS011;1684;50.748;6.154;2023-07-24T10:01:01;5.60;;;3.40;;
3341;SDS011;1684;50.748;6.154;2023-07-24T10:03:32;6.40;;;3.73;;
3341;SDS011;1684;50.748;6.154;2023-07-24T10:06:02;9.50;;;4.20;;
3341;SDS011;1684;50.748;6.154;2023-07-24T10:08:32;6.53;;;3.20;;
3341;SDS011;1684;50.748;6.154;2023-07-24T10:11:02;7.77;;;3.80;;
3341;SDS011;1684;50.748;6.154;2023-07-24T10:13:31;8.63;;;3.83;;
3341;SDS011;1684;50.748;6.154;2023-07-24T10:16:02;5.50;;;3.33;;
3341;SDS011;1684;50.748;6.154;2023-07-24T10:18:33;7.17;;;3.63;;
3341;SDS011;1684;50.748;6.154;2023-07-24T10:21:03;7.47;;;3.53;;
3341;SDS011;1684;50.748;6.154;2023-07-24T10:23:33;6.50;;;4.80;;
3341;SDS011;1684;50.748;6.154;2023-07-24T10:26:03;8.77;;;3.97;;
3341;SDS011;1684;50.748;6.154;2023-07-24T10:28:32;7.40;;;3.97;;
3341;SDS011;1684;50.748;6.154;2023-07-24T10:31:01;6.33;;;3.40;;
3341;SDS011;1684;50.748;6.154;2023-07-24T10:33:30;5.53;;;3.63;;
3341;SDS011;1684;50.748;6.154;2023-07-24T10:36:05;10.87;;;4.30;;
3341;SDS011;1684;50.748;6.154;2023-07-24T10:38:36;7.60;;;3.80;;
3341;SDS011;1684;50.748;6.154;2023-07-24T10:41:08;7.77;;;4.00;;
3341;SDS011;1684;50.748;6.154;2023-07-24T10:43:40;6.87;;;3.33;;
3341;SDS011;1684;50.748;6.154;2023-07-24T10:46:13;9.60;;;4.20;;
3341;SDS011;1684;50.748;6.154;2023-07-24T10:48:42;7.30;;;4.00;;
3341;SDS011;1684;50.748;6.154;2023-07-24T10:51:11;6.30;;;3.83;;
3341;SDS011;1684;50.748;6.154;2023-07-24T10:53:42;8.33;;;4.40;;
3341;SDS011;1684;50.748;6.154;2023-07-24T10:56:12;6.47;;;4.07;;
3341;SDS011;1684;50.748;6.154;2023-07-24T10:58:40;8.30;;;4.27;;
3341;SDS011;1684;50.748;6.154;2023-07-24T11:01:09;8.43;;;5.33;;
3341;SDS011;1684;50.748;6.154;2023-07-24T11:03:38;9.40;;;4.80;;
3341;SDS011;1684;50.748;6.154;2023-07-24T11:06:11;6.90;;;4.03;;
3341;SDS011;1684;50.748;6.154;2023-07-24T11:08:40;9.50;;;4.03;;
3341;SDS011;1684;50.748;6.154;2023-07-24T11:11:08;8.40;;;3.93;;
3341;SDS011;1684;50.748;6.154;2023-07-24T11:13:43;6.50;;;3.80;;
3341;SDS011;1684;50.748;6.154;2023-07-24T11:16:11;9.90;;;3.43;;
3341;SDS011;1684;50.748;6.154;2023-07-24T11:18:43;8.80;;;3.60;;
3341;SDS011;1684;50.748;6.154;2023-07-24T11:21:20;4.57;;;1.73;;
3341;SDS011;1684;50.748;6.154;2023-07-24T11:23:48;3.90;;;1.83;;
3341;SDS011;1684;50.748;6.154;2023-07-24T11:26:18;7.07;;;1.87;;
3341;SDS011;1684;50.748;6.154;2023-07-24T11:28:48;4.07;;;1.00;;
3341;SDS011;1684;50.748;6.154;2023-07-24T11:31:17;4.17;;;1.50;;
3341;SDS011;1684;50.748;6.154;2023-07-24T11:33:47;5.00;;;1.33;;
3341;SDS011;1684;50.748;6.154;2023-07-24T11:36:16;2.93;;;1.20;;
3341;SDS011;1684;50.748;6.154;2023-07-24T11:38:45;3.53;;;1.80;;
3341;SDS011;1684;50.748;6.154;2023-07-24T11:41:13;4.10;;;1.90;;
3341;SDS011;1684;50.748;6.154;2023-07-24T11:43:46;4.57;;;1.80;;
3341;SDS011;1684;50.748;6.154;2023-07-24T11:46:25;5.20;;;1.80;;
3341;SDS011;1684;50.748;6.154;2023-07-24T11:48:54;4.63;;;2.27;;
3341;SDS011;1684;50.748;6.154;2023-07-24T11:51:24;5.77;;;2.37;;
3341;SDS011;1684;50.748;6.154;2023-07-24T11:54:03;4.40;;;2.50;;
3341;SDS011;1684;50.748;6.154;2023-07-24T11:56:32;3.40;;;1.93;;
3341;SDS011;1684;50.748;6.154;2023-07-24T11:59:08;5.77;;;2.93;;
3341;SDS011;1684;50.748;6.154;2023-07-24T12:01:38;8.67;;;2.37;;
3341;SDS011;1684;50.748;6.154;2023-07-24T12:04:06;5.00;;;3.07;;
3341;SDS011;1684;50.748;6.154;2023-07-24T12:06:35;4.50;;;2.17;;
3341;SDS011;1684;50.748;6.154;2023-07-24T12:09:03;3.97;;;2.20;;
3341;SDS011;1684;50.748;6.154;2023-07-24T12:11:32;4.27;;;2.70;;
3341;SDS011;1684;50.748;6.154;2023-07-24T12:14:01;4.03;;;2.07;;
3341;SDS011;1684;50.748;6.154;2023-07-24T12:16:29;4.90;;;2.47;;
3341;SDS011;1684;50.748;6.154;2023-07-24T12:18:59;4.00;;;1.93;;
3341;SDS011;1684;50.748;6.154;2023-07-24T12:21:28;4.93;;;2.63;;
3341;SDS011;1684;50.748;6.154;2023-07-24T12:23:56;4.70;;;2.30;;
3341;SDS011;1684;50.748;6.154;2023-07-24T12:26:24;4.10;;;2.27;;
3341;SDS011;1684;50.748;6.154;2023-07-24T12:28:54;5.30;;;2.50;;
3341;SDS011;1684;50.748;6.154;2023-07-24T12:31:22;5.40;;;2.37;;
3341;SDS011;1684;50.748;6.154;2023-07-24T12:33:50;5.17;;;2.33;;
3341;SDS011;1684;50.748;6.154;2023-07-24T12:36:20;4.30;;;2.50;;
3341;SDS011;1684;50.748;6.154;2023-07-24T12:38:49;6.33;;;2.23;;
3341;SDS011;1684;50.748;6.154;2023-07-24T12:41:18;6.63;;;2.30;;
3341;SDS011;1684;50.748;6.154;2023-07-24T12:43:46;5.43;;;2.80;;
3341;SDS011;1684;50.748;6.154;2023-07-24T12:46:14;3.87;;;2.17;;
3341;SDS011;1684;50.748;6.154;2023-07-24T12:48:43;4.13;;;2.60;;
3341;SDS011;1684;50.748;6.154;2023-07-24T12:51:11;4.20;;;2.53;;
3341;SDS011;1684;50.748;6.154;2023-07-24T12:53:41;3.40;;;1.87;;
3341;SDS011;1684;50.748;6.154;2023-07-24T12:56:30;25.67;;;3.17;;
3341;SDS011;1684;50.748;6.154;2023-07-24T12:58:59;3.50;;;2.10;;
3341;SDS011;1684;50.748;6.154;2023-07-24T13:01:29;4.10;;;2.03;;
3341;SDS011;1684;50.748;6.154;2023-07-24T13:03:58;3.50;;;1.97;;
3341;SDS011;1684;50.748;6.154;2023-07-24T13:06:26;4.00;;;2.10;;
3341;SDS011;1684;50.748;6.154;2023-07-24T13:08:56;4.40;;;2.40;;
3341;SDS011;1684;50.748;6.154;2023-07-24T13:11:25;2.90;;;1.50;;
3341;SDS011;1684;50.748;6.154;2023-07-24T13:13:54;4.13;;;2.00;;
3341;SDS011;1684;50.748;6.154;2023-07-24T13:16:23;3.93;;;2.10;;
3341;SDS011;1684;50.748;6.154;2023-07-24T13:18:51;5.67;;;1.83;;
3341;SDS011;1684;50.748;6.154;2023-07-24T13:21:20;3.80;;;1.63;;
3341;SDS011;1684;50.748;6.154;2023-07-24T13:23:49;3.87;;;1.97;;
3341;SDS011;1684;50.748;6.154;2023-07-24T13:26:19;3.90;;;1.80;;
3341;SDS011;1684;50.748;6.154;2023-07-24T13:28:47;4.60;;;2.30;;
3341;SDS011;1684;50.748;6.154;2023-07-24T13:31:16;4.60;;;2.03;;
3341;SDS011;1684;50.748;6.154;2023-07-24T13:33:45;5.80;;;2.50;;
3341;SDS011;1684;50.748;6.154;2023-07-24T13:36:14;3.97;;;1.90;;
3341;SDS011;1684;50.748;6.154;2023-07-24T13:38:42;4.00;;;2.53;;
3341;SDS011;1684;50.748;6.154;2023-07-24T13:41:10;4.10;;;2.40;;
3341;SDS011;1684;50.748;6.154;2023-07-24T13:43:40;4.23;;;2.50;;
3341;SDS011;1684;50.748;6.154;2023-07-24T13:46:08;3.83;;;2.27;;
3341;SDS011;1684;50.748;6.154;2023-07-24T13:48:37;3.83;;;2.10;;
3341;SDS011;1684;50.748;6.154;2023-07-24T13:51:05;4.90;;;2.30;;
3341;SDS011;1684;50.748;6.154;2023-07-24T13:56:20;5.13;;;3.03;;
3341;SDS011;1684;50.748;6.154;2023-07-24T13:58:58;7.23;;;3.50;;
3341;SDS011;1684;50.748;6.154;2023-07-24T14:01:26;4.70;;;3.00;;
3341;SDS011;1684;50.748;6.154;2023-07-24T14:03:55;5.30;;;3.47;;
3341;SDS011;1684;50.748;6.154;2023-07-24T14:06:24;5.00;;;3.03;;
3341;SDS011;1684;50.748;6.154;2023-07-24T14:08:52;5.63;;;3.27;;
3341;SDS011;1684;50.748;6.154;2023-07-24T14:11:21;6.43;;;4.40;;
3341;SDS011;1684;50.748;6.154;2023-07-24T14:13:51;6.00;;;4.50;;
3341;SDS011;1684;50.748;6.154;2023-07-24T14:16:20;6.37;;;4.10;;
3341;SDS011;1684;50.748;6.154;2023-07-24T14:18:49;7.10;;;4.50;;
3341;SDS011;1684;50.748;6.154;2023-07-24T14:21:17;6.47;;;4.37;;
3341;SDS011;1684;50.748;6.154;2023-07-24T14:23:46;8.00;;;4.73;;
3341;SDS011;1684;50.748;6.154;2023-07-24T14:26:14;7.00;;;3.93;;
3341;SDS011;1684;50.748;6.154;2023-07-24T14:28:43;5.90;;;4.00;;
3341;SDS011;1684;50.748;6.154;2023-07-24T14:31:12;5.53;;;3.37;;
3341;SDS011;1684;50.748;6.154;2023-07-24T14:33:42;5.63;;;4.37;;
3341;SDS011;1684;50.748;6.154;2023-07-24T14:36:10;6.10;;;3.70;;
3341;SDS011;1684;50.748;6.154;2023-07-24T14:38:38;7.53;;;4.17;;
3341;SDS011;1684;50.748;6.154;2023-07-24T14:41:07;6.00;;;4.17;;
3341;SDS011;1684;50.748;6.154;2023-07-24T14:43:35;6.27;;;4.57;;
3341;SDS011;1684;50.748;6.154;2023-07-24T14:46:04;6.63;;;3.80;;
3341;SDS011;1684;50.748;6.154;2023-07-24T14:48:32;7.40;;;4.53;;
3341;SDS011;1684;50.748;6.154;2023-07-24T14:51:02;8.37;;;3.90;;
3341;SDS011;1684;50.748;6.154;2023-07-24T14:53:30;6.40;;;4.17;;
3341;SDS011;1684;50.748;6.154;2023-07-24T14:55:59;5.87;;;3.77;;
3341;SDS011;1684;50.748;6.154;2023-07-24T14:58:27;6.57;;;4.50;;
3341;SDS011;1684;50.748;6.154;2023-07-24T15:00:55;5.90;;;4.03;;
3341;SDS011;1684;50.748;6.154;2023-07-24T15:03:24;6.50;;;4.47;;
3341;SDS011;1684;50.748;6.154;2023-07-24T15:05:52;6.27;;;4.50;;
3341;SDS011;1684;50.748;6.154;2023-07-24T15:08:23;8.50;;;5.27;;
3341;SDS011;1684;50.748;6.154;2023-07-24T15:10:52;7.03;;;4.60;;
3341;SDS011;1684;50.748;6.154;2023-07-24T15:13:21;8.17;;;4.73;;
3341;SDS011;1684;50.748;6.154;2023-07-24T15:15:49;10.00;;;4.60;;
3341;SDS011;1684;50.748;6.154;2023-07-24T15:18:18;7.13;;;4.73;;
3341;SDS011;1684;50.748;6.154;2023-07-24T15:20:46;7.33;;;4.67;;
3341;SDS011;1684;50.748;6.154;2023-07-24T15:23:14;8.00;;;4.93;;
3341;SDS011;1684;50.748;6.154;2023-07-24T15:25:45;7.73;;;5.40;;
3341;SDS011;1684;50.748;6.154;2023-07-24T15:28:13;12.20;;;4.70;;
3341;SDS011;1684;50.748;6.154;2023-07-24T15:30:42;7.97;;;5.60;;
3341;SDS011;1684;50.748;6.154;2023-07-24T15:33:11;7.27;;;4.10;;